sensor_id;sensor_type;location;lat;lon;timestamp;P1;durP1;ratioP1;P2;durP2;ratioP2
37527;SDS011;23372;52.050;4.810;2023-02-16T00:01:48;75.90;;;40.67;;
37527;SDS011;23372;52.050;4.810;2023-02-16T00:04:16;80.57;;;43.10;;
37527;SDS011;23372;52.050;4.810;2023-02-16T00:06:47;72.53;;;40.33;;
37527;SDS011;23372;52.050;4.810;2023-02-16T00:09:13;83.27;;;43.03;;
37527;SDS011;23372;52.050;4.810;2023-02-16T00:11:39;86.43;;;44.97;;
37527;SDS011;23372;52.050;4.810;2023-02-16T00:14:24;86.60;;;43.37;;
37527;SDS011;23372;52.050;4.810;2023-02-16T00:16:51;83.80;;;43.93;;
37527;SDS011;23372;52.050;4.810;2023-02-16T00:19:25;91.57;;;46.23;;
37527;SDS011;23372;52.050;4.810;2023-02-16T00:22:00;80.97;;;43.10;;
37527;SDS011;23372;52.050;4.810;2023-02-16T00:24:26;85.17;;;44.13;;
37527;SDS011;23372;52.050;4.810;2023-02-16T00:26:53;78.23;;;43.37;;
37527;SDS011;23372;52.050;4.810;2023-02-16T00:31:54;81.60;;;44.17;;
37527;SDS011;23372;52.050;4.810;2023-02-16T00:36:54;86.57;;;45.20;;
37527;SDS011;23372;52.050;4.810;2023-02-16T00:39:21;82.87;;;45.37;;
37527;SDS011;23372;52.050;4.810;2023-02-16T00:41:49;82.30;;;44.33;;
37527;SDS011;23372;52.050;4.810;2023-02-16T00:44:16;85.17;;;44.40;;
37527;SDS011;23372;52.050;4.810;2023-02-16T00:46:45;84.67;;;43.20;;
37527;SDS011;23372;52.050;4.810;2023-02-16T00:49:15;90.73;;;44.40;;
37527;SDS011;23372;52.050;4.810;2023-02-16T00:51:41;84.67;;;45.80;;
37527;SDS011;23372;52.050;4.810;2023-02-16T00:54:07;81.60;;;43.73;;
37527;SDS011;23372;52.050;4.810;2023-02-16T00:56:33;86.80;;;44.00;;
37527;SDS011;23372;52.050;4.810;2023-02-16T00:59:00;84.50;;;45.20;;
37527;SDS011;23372;52.050;4.810;2023-02-16T01:01:28;82.40;;;46.10;;
37527;SDS011;23372;52.050;4.810;2023-02-16T01:03:57;83.30;;;44.70;;
37527;SDS011;23372;52.050;4.810;2023-02-16T01:06:26;86.63;;;47.10;;
37527;SDS011;23372;52.050;4.810;2023-02-16T01:09:17;84.57;;;45.33;;
37527;SDS011;23372;52.050;4.810;2023-02-16T01:12:04;80.73;;;44.57;;
37527;SDS011;23372;52.050;4.810;2023-02-16T01:14:33;79.97;;;46.57;;
37527;SDS011;23372;52.050;4.810;2023-02-16T01:16:59;90.53;;;46.83;;
37527;SDS011;23372;52.050;4.810;2023-02-16T01:19:25;91.03;;;47.30;;
37527;SDS011;23372;52.050;4.810;2023-02-16T01:21:51;83.37;;;46.30;;
37527;SDS011;23372;52.050;4.810;2023-02-16T01:24:17;89.23;;;46.13;;
37527;SDS011;23372;52.050;4.810;2023-02-16T01:26:43;91.23;;;46.73;;
37527;SDS011;23372;52.050;4.810;2023-02-16T01:29:13;78.13;;;43.13;;
37527;SDS011;23372;52.050;4.810;2023-02-16T01:31:45;87.43;;;47.93;;
37527;SDS011;23372;52.050;4.810;2023-02-16T01:34:11;85.97;;;46.30;;
37527;SDS011;23372;52.050;4.810;2023-02-16T01:36:38;90.20;;;46.30;;
37527;SDS011;23372;52.050;4.810;2023-02-16T01:39:06;79.43;;;45.13;;
37527;SDS011;23372;52.050;4.810;2023-02-16T01:41:55;83.53;;;44.53;;
37527;SDS011;23372;52.050;4.810;2023-02-16T01:44:45;79.47;;;43.63;;
37527;SDS011;23372;52.050;4.810;2023-02-16T01:50:10;86.77;;;45.37;;
37527;SDS011;23372;52.050;4.810;2023-02-16T01:52:40;75.60;;;43.47;;
37527;SDS011;23372;52.050;4.810;2023-02-16T02:03:14;79.50;;;42.77;;
37527;SDS011;23372;52.050;4.810;2023-02-16T02:06:09;81.67;;;44.53;;
37527;SDS011;23372;52.050;4.810;2023-02-16T02:08:39;82.47;;;42.33;;
37527;SDS011;23372;52.050;4.810;2023-02-16T02:11:25;82.10;;;44.60;;
37527;SDS011;23372;52.050;4.810;2023-02-16T02:14:01;83.17;;;43.33;;
37527;SDS011;23372;52.050;4.810;2023-02-16T02:16:32;79.17;;;43.23;;
37527;SDS011;23372;52.050;4.810;2023-02-16T02:18:58;80.43;;;44.07;;
37527;SDS011;23372;52.050;4.810;2023-02-16T02:21:27;73.57;;;41.57;;
37527;SDS011;23372;52.050;4.810;2023-02-16T02:24:55;75.63;;;42.73;;
37527;SDS011;23372;52.050;4.810;2023-02-16T02:28:13;77.10;;;42.50;;
37527;SDS011;23372;52.050;4.810;2023-02-16T02:33:57;80.67;;;42.53;;
37527;SDS011;23372;52.050;4.810;2023-02-16T02:36:38;75.30;;;40.60;;
37527;SDS011;23372;52.050;4.810;2023-02-16T02:39:30;81.53;;;43.07;;
37527;SDS011;23372;52.050;4.810;2023-02-16T02:42:09;77.50;;;43.03;;
37527;SDS011;23372;52.050;4.810;2023-02-16T02:44:39;77.97;;;42.27;;
37527;SDS011;23372;52.050;4.810;2023-02-16T02:47:12;77.03;;;42.07;;
37527;SDS011;23372;52.050;4.810;2023-02-16T02:49:38;75.73;;;41.77;;
37527;SDS011;23372;52.050;4.810;2023-02-16T02:52:03;70.40;;;39.90;;
37527;SDS011;23372;52.050;4.810;2023-02-16T02:54:33;76.20;;;41.73;;
37527;SDS011;23372;52.050;4.810;2023-02-16T02:57:22;75.93;;;41.40;;
37527;SDS011;23372;52.050;4.810;2023-02-16T03:03:18;74.83;;;40.23;;
37527;SDS011;23372;52.050;4.810;2023-02-16T03:05:50;72.90;;;39.77;;
37527;SDS011;23372;52.050;4.810;2023-02-16T03:08:23;69.63;;;39.20;;
37527;SDS011;23372;52.050;4.810;2023-02-16T03:11:01;74.53;;;38.77;;
37527;SDS011;23372;52.050;4.810;2023-02-16T03:13:48;75.63;;;40.57;;
37527;SDS011;23372;52.050;4.810;2023-02-16T03:16:22;70.53;;;40.53;;
37527;SDS011;23372;52.050;4.810;2023-02-16T03:18:51;70.17;;;39.07;;
37527;SDS011;23372;52.050;4.810;2023-02-16T03:21:36;70.33;;;38.90;;
37527;SDS011;23372;52.050;4.810;2023-02-16T03:24:23;71.97;;;38.83;;
37527;SDS011;23372;52.050;4.810;2023-02-16T03:27:11;71.33;;;39.20;;
37527;SDS011;23372;52.050;4.810;2023-02-16T03:29:58;73.53;;;38.90;;
37527;SDS011;23372;52.050;4.810;2023-02-16T03:32:25;71.40;;;38.03;;
37527;SDS011;23372;52.050;4.810;2023-02-16T03:34:51;67.90;;;39.07;;
37527;SDS011;23372;52.050;4.810;2023-02-16T03:37:17;72.40;;;40.33;;
37527;SDS011;23372;52.050;4.810;2023-02-16T03:39:42;69.17;;;36.77;;
37527;SDS011;23372;52.050;4.810;2023-02-16T03:42:26;67.33;;;38.83;;
37527;SDS011;23372;52.050;4.810;2023-02-16T03:44:52;72.03;;;37.47;;
37527;SDS011;23372;52.050;4.810;2023-02-16T03:47:18;73.33;;;37.50;;
37527;SDS011;23372;52.050;4.810;2023-02-16T03:49:43;67.87;;;38.90;;
37527;SDS011;23372;52.050;4.810;2023-02-16T03:52:09;67.43;;;38.83;;
37527;SDS011;23372;52.050;4.810;2023-02-16T03:54:34;74.37;;;39.03;;
37527;SDS011;23372;52.050;4.810;2023-02-16T03:57:00;72.00;;;38.10;;
37527;SDS011;23372;52.050;4.810;2023-02-16T03:59:25;72.60;;;39.37;;
37527;SDS011;23372;52.050;4.810;2023-02-16T04:01:51;71.47;;;38.27;;
37527;SDS011;23372;52.050;4.810;2023-02-16T04:04:16;67.87;;;36.87;;
37527;SDS011;23372;52.050;4.810;2023-02-16T04:06:42;69.60;;;39.17;;
37527;SDS011;23372;52.050;4.810;2023-02-16T04:09:07;66.17;;;37.03;;
37527;SDS011;23372;52.050;4.810;2023-02-16T04:11:33;67.93;;;37.57;;
37527;SDS011;23372;52.050;4.810;2023-02-16T04:14:17;72.33;;;39.43;;
37527;SDS011;23372;52.050;4.810;2023-02-16T04:16:43;69.27;;;38.67;;
37527;SDS011;23372;52.050;4.810;2023-02-16T04:19:09;72.00;;;39.07;;
37527;SDS011;23372;52.050;4.810;2023-02-16T04:21:35;63.47;;;37.83;;
37527;SDS011;23372;52.050;4.810;2023-02-16T04:24:01;70.90;;;40.17;;
37527;SDS011;23372;52.050;4.810;2023-02-16T04:26:27;70.17;;;38.83;;
37527;SDS011;23372;52.050;4.810;2023-02-16T04:28:53;69.70;;;38.87;;
37527;SDS011;23372;52.050;4.810;2023-02-16T04:31:18;66.93;;;36.43;;
37527;SDS011;23372;52.050;4.810;2023-02-16T04:33:44;70.60;;;38.83;;
37527;SDS011;23372;52.050;4.810;2023-02-16T04:36:09;68.17;;;38.50;;
37527;SDS011;23372;52.050;4.810;2023-02-16T04:38:35;67.90;;;36.97;;
37527;SDS011;23372;52.050;4.810;2023-02-16T04:41:01;71.53;;;39.23;;
37527;SDS011;23372;52.050;4.810;2023-02-16T04:43:26;75.97;;;40.03;;
37527;SDS011;23372;52.050;4.810;2023-02-16T04:45:52;72.07;;;41.23;;
37527;SDS011;23372;52.050;4.810;2023-02-16T04:48:17;70.73;;;39.10;;
37527;SDS011;23372;52.050;4.810;2023-02-16T04:50:43;70.80;;;39.27;;
37527;SDS011;23372;52.050;4.810;2023-02-16T04:53:08;73.90;;;40.50;;
37527;SDS011;23372;52.050;4.810;2023-02-16T04:55:34;68.83;;;39.27;;
37527;SDS011;23372;52.050;4.810;2023-02-16T04:57:59;74.20;;;40.57;;
37527;SDS011;23372;52.050;4.810;2023-02-16T05:00:25;72.10;;;38.63;;
37527;SDS011;23372;52.050;4.810;2023-02-16T05:02:50;70.03;;;39.27;;
37527;SDS011;23372;52.050;4.810;2023-02-16T05:05:16;75.07;;;40.77;;
37527;SDS011;23372;52.050;4.810;2023-02-16T05:07:42;71.57;;;40.80;;
37527;SDS011;23372;52.050;4.810;2023-02-16T05:10:07;72.40;;;40.63;;
37527;SDS011;23372;52.050;4.810;2023-02-16T05:12:33;75.27;;;41.43;;
37527;SDS011;23372;52.050;4.810;2023-02-16T05:15:17;71.93;;;41.40;;
37527;SDS011;23372;52.050;4.810;2023-02-16T05:17:43;77.37;;;42.60;;
37527;SDS011;23372;52.050;4.810;2023-02-16T05:20:09;77.67;;;41.77;;
37527;SDS011;23372;52.050;4.810;2023-02-16T05:22:35;80.20;;;42.90;;
37527;SDS011;23372;52.050;4.810;2023-02-16T05:25:03;74.83;;;42.23;;
37527;SDS011;23372;52.050;4.810;2023-02-16T05:27:29;78.27;;;42.63;;
37527;SDS011;23372;52.050;4.810;2023-02-16T05:29:55;74.17;;;42.20;;
37527;SDS011;23372;52.050;4.810;2023-02-16T05:32:21;79.17;;;43.70;;
37527;SDS011;23372;52.050;4.810;2023-02-16T05:34:47;76.27;;;41.77;;
37527;SDS011;23372;52.050;4.810;2023-02-16T05:37:14;72.47;;;41.30;;
37527;SDS011;23372;52.050;4.810;2023-02-16T05:39:40;74.13;;;41.90;;
37527;SDS011;23372;52.050;4.810;2023-02-16T05:42:06;74.10;;;41.87;;
37527;SDS011;23372;52.050;4.810;2023-02-16T05:44:32;76.37;;;41.23;;
37527;SDS011;23372;52.050;4.810;2023-02-16T05:46:57;73.47;;;40.23;;
37527;SDS011;23372;52.050;4.810;2023-02-16T05:49:23;72.20;;;41.30;;
37527;SDS011;23372;52.050;4.810;2023-02-16T05:51:49;71.27;;;40.00;;
37527;SDS011;23372;52.050;4.810;2023-02-16T05:54:15;76.67;;;42.60;;
37527;SDS011;23372;52.050;4.810;2023-02-16T05:56:44;75.20;;;41.70;;
37527;SDS011;23372;52.050;4.810;2023-02-16T05:59:11;74.73;;;42.23;;
37527;SDS011;23372;52.050;4.810;2023-02-16T06:01:37;71.00;;;41.30;;
37527;SDS011;23372;52.050;4.810;2023-02-16T06:04:05;74.43;;;44.13;;
37527;SDS011;23372;52.050;4.810;2023-02-16T06:06:31;73.63;;;42.17;;
37527;SDS011;23372;52.050;4.810;2023-02-16T06:08:57;77.93;;;42.63;;
37527;SDS011;23372;52.050;4.810;2023-02-16T06:11:22;82.03;;;42.03;;
37527;SDS011;23372;52.050;4.810;2023-02-16T06:14:01;76.70;;;42.77;;
37527;SDS011;23372;52.050;4.810;2023-02-16T06:16:28;75.57;;;44.20;;
37527;SDS011;23372;52.050;4.810;2023-02-16T06:18:56;80.37;;;42.20;;
37527;SDS011;23372;52.050;4.810;2023-02-16T06:21:22;74.87;;;41.53;;
37527;SDS011;23372;52.050;4.810;2023-02-16T06:23:48;75.17;;;42.60;;
37527;SDS011;23372;52.050;4.810;2023-02-16T06:26:14;73.97;;;43.57;;
37527;SDS011;23372;52.050;4.810;2023-02-16T06:28:40;77.80;;;43.83;;
37527;SDS011;23372;52.050;4.810;2023-02-16T06:31:06;81.40;;;43.90;;
37527;SDS011;23372;52.050;4.810;2023-02-16T06:33:32;76.23;;;41.93;;
37527;SDS011;23372;52.050;4.810;2023-02-16T06:35:58;74.53;;;40.27;;
37527;SDS011;23372;52.050;4.810;2023-02-16T06:38:23;77.63;;;41.10;;
37527;SDS011;23372;52.050;4.810;2023-02-16T06:40:52;76.53;;;42.03;;
37527;SDS011;23372;52.050;4.810;2023-02-16T06:43:19;71.40;;;41.07;;
37527;SDS011;23372;52.050;4.810;2023-02-16T06:45:45;74.77;;;41.87;;
37527;SDS011;23372;52.050;4.810;2023-02-16T06:48:11;77.17;;;42.47;;
37527;SDS011;23372;52.050;4.810;2023-02-16T06:50:37;73.40;;;41.70;;
37527;SDS011;23372;52.050;4.810;2023-02-16T06:53:03;75.27;;;42.87;;
37527;SDS011;23372;52.050;4.810;2023-02-16T06:55:28;79.93;;;43.07;;
37527;SDS011;23372;52.050;4.810;2023-02-16T06:57:58;73.30;;;41.70;;
37527;SDS011;23372;52.050;4.810;2023-02-16T07:00:24;70.10;;;40.33;;
37527;SDS011;23372;52.050;4.810;2023-02-16T07:02:49;68.43;;;41.13;;
37527;SDS011;23372;52.050;4.810;2023-02-16T07:05:15;71.33;;;41.13;;
37527;SDS011;23372;52.050;4.810;2023-02-16T07:07:41;70.03;;;42.60;;
37527;SDS011;23372;52.050;4.810;2023-02-16T07:10:07;73.30;;;41.47;;
37527;SDS011;23372;52.050;4.810;2023-02-16T07:12:32;74.90;;;41.87;;
37527;SDS011;23372;52.050;4.810;2023-02-16T07:14:58;80.80;;;42.50;;
37527;SDS011;23372;52.050;4.810;2023-02-16T07:17:24;73.80;;;43.57;;
37527;SDS011;23372;52.050;4.810;2023-02-16T07:19:49;71.70;;;40.60;;
37527;SDS011;23372;52.050;4.810;2023-02-16T07:22:15;77.07;;;43.43;;
37527;SDS011;23372;52.050;4.810;2023-02-16T07:24:41;74.60;;;41.93;;
37527;SDS011;23372;52.050;4.810;2023-02-16T07:27:07;77.17;;;43.43;;
37527;SDS011;23372;52.050;4.810;2023-02-16T07:29:32;78.33;;;43.80;;
37527;SDS011;23372;52.050;4.810;2023-02-16T07:31:58;73.53;;;42.27;;
37527;SDS011;23372;52.050;4.810;2023-02-16T07:34:24;81.40;;;43.07;;
37527;SDS011;23372;52.050;4.810;2023-02-16T07:36:49;78.87;;;42.43;;
37527;SDS011;23372;52.050;4.810;2023-02-16T07:39:15;74.67;;;42.77;;
37527;SDS011;23372;52.050;4.810;2023-02-16T07:41:40;75.43;;;43.83;;
37527;SDS011;23372;52.050;4.810;2023-02-16T07:44:06;78.37;;;43.13;;
37527;SDS011;23372;52.050;4.810;2023-02-16T07:46:32;77.33;;;44.93;;
37527;SDS011;23372;52.050;4.810;2023-02-16T07:48:58;75.00;;;43.37;;
37527;SDS011;23372;52.050;4.810;2023-02-16T07:51:24;75.00;;;42.53;;
37527;SDS011;23372;52.050;4.810;2023-02-16T07:53:54;76.93;;;44.13;;
37527;SDS011;23372;52.050;4.810;2023-02-16T07:56:27;78.90;;;42.30;;
37527;SDS011;23372;52.050;4.810;2023-02-16T07:58:56;72.47;;;42.63;;
37527;SDS011;23372;52.050;4.810;2023-02-16T08:01:23;82.00;;;45.73;;
37527;SDS011;23372;52.050;4.810;2023-02-16T08:03:49;74.37;;;41.57;;
37527;SDS011;23372;52.050;4.810;2023-02-16T08:06:15;74.90;;;42.97;;
37527;SDS011;23372;52.050;4.810;2023-02-16T08:08:42;70.30;;;43.70;;
37527;SDS011;23372;52.050;4.810;2023-02-16T08:13:37;76.73;;;42.80;;
37527;SDS011;23372;52.050;4.810;2023-02-16T08:16:06;71.60;;;42.50;;
37527;SDS011;23372;52.050;4.810;2023-02-16T08:18:37;80.33;;;43.97;;
37527;SDS011;23372;52.050;4.810;2023-02-16T08:21:28;70.40;;;41.03;;
37527;SDS011;23372;52.050;4.810;2023-02-16T08:23:54;80.27;;;45.93;;
37527;SDS011;23372;52.050;4.810;2023-02-16T08:26:22;79.43;;;44.30;;
37527;SDS011;23372;52.050;4.810;2023-02-16T08:28:49;77.73;;;44.17;;
37527;SDS011;23372;52.050;4.810;2023-02-16T08:31:16;81.33;;;45.20;;
37527;SDS011;23372;52.050;4.810;2023-02-16T08:33:49;81.00;;;44.87;;
37527;SDS011;23372;52.050;4.810;2023-02-16T08:36:17;77.87;;;43.73;;
37527;SDS011;23372;52.050;4.810;2023-02-16T08:38:44;74.67;;;43.97;;
37527;SDS011;23372;52.050;4.810;2023-02-16T08:41:14;84.07;;;46.77;;
37527;SDS011;23372;52.050;4.810;2023-02-16T08:43:39;79.77;;;44.73;;
37527;SDS011;23372;52.050;4.810;2023-02-16T08:46:05;77.73;;;45.83;;
37527;SDS011;23372;52.050;4.810;2023-02-16T08:48:34;79.30;;;45.07;;
37527;SDS011;23372;52.050;4.810;2023-02-16T08:51:01;80.63;;;45.07;;
37527;SDS011;23372;52.050;4.810;2023-02-16T08:53:27;80.40;;;44.77;;
37527;SDS011;23372;52.050;4.810;2023-02-16T08:55:57;83.40;;;47.03;;
37527;SDS011;23372;52.050;4.810;2023-02-16T08:58:24;84.67;;;45.67;;
37527;SDS011;23372;52.050;4.810;2023-02-16T09:00:51;84.93;;;47.10;;
37527;SDS011;23372;52.050;4.810;2023-02-16T09:03:16;77.00;;;46.57;;
37527;SDS011;23372;52.050;4.810;2023-02-16T09:05:43;82.87;;;48.10;;
37527;SDS011;23372;52.050;4.810;2023-02-16T09:08:13;84.83;;;49.57;;
37527;SDS011;23372;52.050;4.810;2023-02-16T09:10:39;90.97;;;49.93;;
37527;SDS011;23372;52.050;4.810;2023-02-16T09:13:05;85.40;;;46.30;;
37527;SDS011;23372;52.050;4.810;2023-02-16T09:15:34;90.10;;;48.50;;
37527;SDS011;23372;52.050;4.810;2023-02-16T09:18:00;88.20;;;48.90;;
37527;SDS011;23372;52.050;4.810;2023-02-16T09:20:26;88.10;;;49.70;;
37527;SDS011;23372;52.050;4.810;2023-02-16T09:22:52;86.43;;;49.70;;
37527;SDS011;23372;52.050;4.810;2023-02-16T09:25:18;89.43;;;47.80;;
37527;SDS011;23372;52.050;4.810;2023-02-16T09:27:44;88.90;;;50.57;;
37527;SDS011;23372;52.050;4.810;2023-02-16T09:30:10;86.87;;;51.20;;
37527;SDS011;23372;52.050;4.810;2023-02-16T09:32:36;87.03;;;50.67;;
37527;SDS011;23372;52.050;4.810;2023-02-16T09:35:01;93.80;;;51.80;;
37527;SDS011;23372;52.050;4.810;2023-02-16T09:37:28;87.47;;;50.20;;
37527;SDS011;23372;52.050;4.810;2023-02-16T09:39:54;87.47;;;53.07;;
37527;SDS011;23372;52.050;4.810;2023-02-16T09:45:17;90.23;;;52.13;;
37527;SDS011;23372;52.050;4.810;2023-02-16T09:47:46;96.07;;;55.80;;
37527;SDS011;23372;52.050;4.810;2023-02-16T09:50:18;88.97;;;51.97;;
37527;SDS011;23372;52.050;4.810;2023-02-16T09:55:18;90.87;;;53.47;;
37527;SDS011;23372;52.050;4.810;2023-02-16T10:05:51;91.77;;;52.47;;
37527;SDS011;23372;52.050;4.810;2023-02-16T10:11:12;95.70;;;54.40;;
37527;SDS011;23372;52.050;4.810;2023-02-16T10:14:01;95.10;;;52.57;;
37527;SDS011;23372;52.050;4.810;2023-02-16T10:16:40;96.87;;;54.33;;
37527;SDS011;23372;52.050;4.810;2023-02-16T10:19:16;87.23;;;51.47;;
37527;SDS011;23372;52.050;4.810;2023-02-16T10:21:48;92.47;;;51.93;;
37527;SDS011;23372;52.050;4.810;2023-02-16T10:24:17;90.50;;;54.67;;
37527;SDS011;23372;52.050;4.810;2023-02-16T10:26:52;93.90;;;53.43;;
37527;SDS011;23372;52.050;4.810;2023-02-16T10:29:22;89.90;;;52.50;;
37527;SDS011;23372;52.050;4.810;2023-02-16T10:37:45;91.37;;;51.10;;
37527;SDS011;23372;52.050;4.810;2023-02-16T10:43:17;92.57;;;53.37;;
37527;SDS011;23372;52.050;4.810;2023-02-16T10:45:50;91.93;;;53.63;;
37527;SDS011;23372;52.050;4.810;2023-02-16T10:48:22;93.13;;;54.97;;
37527;SDS011;23372;52.050;4.810;2023-02-16T10:56:00;92.50;;;53.97;;
37527;SDS011;23372;52.050;4.810;2023-02-16T10:58:37;84.47;;;51.00;;
37527;SDS011;23372;52.050;4.810;2023-02-16T11:01:06;88.10;;;51.90;;
37527;SDS011;23372;52.050;4.810;2023-02-16T11:03:39;91.30;;;51.77;;
37527;SDS011;23372;52.050;4.810;2023-02-16T11:06:16;88.03;;;51.70;;
37527;SDS011;23372;52.050;4.810;2023-02-16T11:09:15;85.50;;;50.53;;
37527;SDS011;23372;52.050;4.810;2023-02-16T11:11:39;86.10;;;48.67;;
37527;SDS011;23372;52.050;4.810;2023-02-16T11:14:07;87.30;;;48.10;;
37527;SDS011;23372;52.050;4.810;2023-02-16T11:16:42;87.23;;;52.33;;
37527;SDS011;23372;52.050;4.810;2023-02-16T11:19:20;91.63;;;51.73;;
37527;SDS011;23372;52.050;4.810;2023-02-16T11:21:52;84.13;;;49.37;;
37527;SDS011;23372;52.050;4.810;2023-02-16T11:24:26;95.33;;;53.00;;
37527;SDS011;23372;52.050;4.810;2023-02-16T11:27:01;87.67;;;50.37;;
37527;SDS011;23372;52.050;4.810;2023-02-16T11:29:31;87.83;;;48.27;;
37527;SDS011;23372;52.050;4.810;2023-02-16T11:31:57;86.17;;;50.63;;
37527;SDS011;23372;52.050;4.810;2023-02-16T11:35:01;83.37;;;47.27;;
37527;SDS011;23372;52.050;4.810;2023-02-16T11:37:27;78.93;;;47.53;;
37527;SDS011;23372;52.050;4.810;2023-02-16T11:40:01;106.00;;;60.07;;
37527;SDS011;23372;52.050;4.810;2023-02-16T11:42:46;83.80;;;49.83;;
37527;SDS011;23372;52.050;4.810;2023-02-16T11:45:30;75.43;;;45.93;;
37527;SDS011;23372;52.050;4.810;2023-02-16T11:48:03;74.60;;;44.37;;
37527;SDS011;23372;52.050;4.810;2023-02-16T11:50:32;73.03;;;43.80;;
37527;SDS011;23372;52.050;4.810;2023-02-16T11:55:35;72.67;;;44.77;;
37527;SDS011;23372;52.050;4.810;2023-02-16T11:58:17;81.67;;;47.40;;
37527;SDS011;23372;52.050;4.810;2023-02-16T12:03:29;76.10;;;42.63;;
37527;SDS011;23372;52.050;4.810;2023-02-16T12:09:02;77.90;;;45.70;;
37527;SDS011;23372;52.050;4.810;2023-02-16T12:15:05;70.53;;;41.40;;
37527;SDS011;23372;52.050;4.810;2023-02-16T12:20:46;69.33;;;39.80;;
37527;SDS011;23372;52.050;4.810;2023-02-16T12:23:24;75.97;;;44.47;;
37527;SDS011;23372;52.050;4.810;2023-02-16T12:28:31;76.37;;;44.03;;
37527;SDS011;23372;52.050;4.810;2023-02-16T12:31:14;68.67;;;40.87;;
37527;SDS011;23372;52.050;4.810;2023-02-16T12:37:09;71.53;;;43.83;;
37527;SDS011;23372;52.050;4.810;2023-02-16T12:45:43;60.07;;;38.47;;
37527;SDS011;23372;52.050;4.810;2023-02-16T12:51:07;69.43;;;35.67;;
37527;SDS011;23372;52.050;4.810;2023-02-16T12:56:38;47.73;;;28.13;;
37527;SDS011;23372;52.050;4.810;2023-02-16T12:59:23;47.13;;;28.93;;
37527;SDS011;23372;52.050;4.810;2023-02-16T13:01:57;48.63;;;29.73;;
37527;SDS011;23372;52.050;4.810;2023-02-16T13:09:52;45.40;;;26.90;;
37527;SDS011;23372;52.050;4.810;2023-02-16T13:12:50;40.63;;;25.23;;
37527;SDS011;23372;52.050;4.810;2023-02-16T13:15:32;41.40;;;24.83;;
37527;SDS011;23372;52.050;4.810;2023-02-16T13:18:05;42.83;;;25.97;;
37527;SDS011;23372;52.050;4.810;2023-02-16T13:21:00;45.63;;;24.80;;
37527;SDS011;23372;52.050;4.810;2023-02-16T13:23:43;42.47;;;24.10;;
37527;SDS011;23372;52.050;4.810;2023-02-16T13:26:27;41.83;;;26.70;;
37527;SDS011;23372;52.050;4.810;2023-02-16T13:43:04;44.43;;;24.47;;
37527;SDS011;23372;52.050;4.810;2023-02-16T13:45:40;35.80;;;21.63;;
37527;SDS011;23372;52.050;4.810;2023-02-16T13:48:15;35.10;;;19.47;;
37527;SDS011;23372;52.050;4.810;2023-02-16T13:50:46;30.87;;;17.60;;
37527;SDS011;23372;52.050;4.810;2023-02-16T13:53:19;28.07;;;16.77;;
37527;SDS011;23372;52.050;4.810;2023-02-16T13:55:46;26.30;;;15.67;;
37527;SDS011;23372;52.050;4.810;2023-02-16T14:00:43;24.50;;;14.67;;
37527;SDS011;23372;52.050;4.810;2023-02-16T14:05:53;28.80;;;15.63;;
37527;SDS011;23372;52.050;4.810;2023-02-16T14:08:38;30.17;;;17.37;;
37527;SDS011;23372;52.050;4.810;2023-02-16T14:11:05;27.57;;;16.77;;
37527;SDS011;23372;52.050;4.810;2023-02-16T14:13:33;26.70;;;16.97;;
37527;SDS011;23372;52.050;4.810;2023-02-16T14:16:23;29.60;;;17.47;;
37527;SDS011;23372;52.050;4.810;2023-02-16T14:19:00;27.60;;;17.87;;
37527;SDS011;23372;52.050;4.810;2023-02-16T14:21:43;31.80;;;18.40;;
37527;SDS011;23372;52.050;4.810;2023-02-16T14:24:12;27.90;;;18.20;;
37527;SDS011;23372;52.050;4.810;2023-02-16T14:26:49;29.30;;;18.80;;
37527;SDS011;23372;52.050;4.810;2023-02-16T14:29:25;32.37;;;19.70;;
37527;SDS011;23372;52.050;4.810;2023-02-16T14:32:54;32.57;;;19.13;;
37527;SDS011;23372;52.050;4.810;2023-02-16T14:40:20;32.90;;;21.10;;
37527;SDS011;23372;52.050;4.810;2023-02-16T14:43:03;31.83;;;20.70;;
37527;SDS011;23372;52.050;4.810;2023-02-16T14:56:38;32.47;;;20.50;;
37527;SDS011;23372;52.050;4.810;2023-02-16T15:01:59;38.70;;;23.27;;
37527;SDS011;23372;52.050;4.810;2023-02-16T15:04:29;39.60;;;24.07;;
37527;SDS011;23372;52.050;4.810;2023-02-16T15:06:56;41.83;;;26.23;;
37527;SDS011;23372;52.050;4.810;2023-02-16T15:09:28;44.07;;;27.77;;
37527;SDS011;23372;52.050;4.810;2023-02-16T15:11:57;42.77;;;25.90;;
37527;SDS011;23372;52.050;4.810;2023-02-16T15:14:47;46.20;;;29.27;;
37527;SDS011;23372;52.050;4.810;2023-02-16T15:20:03;50.17;;;30.73;;
37527;SDS011;23372;52.050;4.810;2023-02-16T15:22:31;49.13;;;30.47;;
37527;SDS011;23372;52.050;4.810;2023-02-16T15:25:05;48.33;;;29.93;;
37527;SDS011;23372;52.050;4.810;2023-02-16T15:27:50;51.60;;;29.23;;
37527;SDS011;23372;52.050;4.810;2023-02-16T15:30:25;47.73;;;28.37;;
37527;SDS011;23372;52.050;4.810;2023-02-16T15:32:57;51.23;;;29.47;;
37527;SDS011;23372;52.050;4.810;2023-02-16T15:35:27;49.67;;;30.50;;
37527;SDS011;23372;52.050;4.810;2023-02-16T15:38:00;51.03;;;32.07;;
37527;SDS011;23372;52.050;4.810;2023-02-16T15:40:28;50.70;;;31.40;;
37527;SDS011;23372;52.050;4.810;2023-02-16T15:42:56;51.77;;;30.23;;
37527;SDS011;23372;52.050;4.810;2023-02-16T15:45:32;48.67;;;29.97;;
37527;SDS011;23372;52.050;4.810;2023-02-16T15:50:45;46.80;;;28.67;;
37527;SDS011;23372;52.050;4.810;2023-02-16T15:53:12;51.00;;;28.47;;
37527;SDS011;23372;52.050;4.810;2023-02-16T15:55:44;45.10;;;27.03;;
37527;SDS011;23372;52.050;4.810;2023-02-16T15:58:11;47.23;;;27.20;;
37527;SDS011;23372;52.050;4.810;2023-02-16T16:00:39;45.20;;;27.80;;
37527;SDS011;23372;52.050;4.810;2023-02-16T16:03:07;42.33;;;26.37;;
37527;SDS011;23372;52.050;4.810;2023-02-16T16:05:37;46.63;;;28.73;;
37527;SDS011;23372;52.050;4.810;2023-02-16T16:08:06;47.20;;;27.20;;
37527;SDS011;23372;52.050;4.810;2023-02-16T16:10:35;44.70;;;27.37;;
37527;SDS011;23372;52.050;4.810;2023-02-16T16:13:05;44.03;;;27.47;;
37527;SDS011;23372;52.050;4.810;2023-02-16T16:15:47;48.20;;;29.30;;
37527;SDS011;23372;52.050;4.810;2023-02-16T16:21:15;46.83;;;29.23;;
37527;SDS011;23372;52.050;4.810;2023-02-16T16:23:54;49.87;;;29.33;;
37527;SDS011;23372;52.050;4.810;2023-02-16T16:26:22;50.00;;;29.13;;
37527;SDS011;23372;52.050;4.810;2023-02-16T16:28:49;50.67;;;31.03;;
37527;SDS011;23372;52.050;4.810;2023-02-16T16:31:16;52.20;;;30.70;;
37527;SDS011;23372;52.050;4.810;2023-02-16T16:33:52;52.33;;;31.33;;
37527;SDS011;23372;52.050;4.810;2023-02-16T16:36:26;53.77;;;30.60;;
37527;SDS011;23372;52.050;4.810;2023-02-16T16:39:30;51.73;;;31.63;;
37527;SDS011;23372;52.050;4.810;2023-02-16T16:44:34;54.77;;;32.07;;
37527;SDS011;23372;52.050;4.810;2023-02-16T16:49:57;58.83;;;33.73;;
37527;SDS011;23372;52.050;4.810;2023-02-16T16:52:49;54.37;;;32.40;;
37527;SDS011;23372;52.050;4.810;2023-02-16T16:55:19;62.97;;;35.23;;
37527;SDS011;23372;52.050;4.810;2023-02-16T16:57:50;60.57;;;36.43;;
37527;SDS011;23372;52.050;4.810;2023-02-16T17:00:18;69.40;;;37.73;;
37527;SDS011;23372;52.050;4.810;2023-02-16T17:02:44;66.37;;;36.97;;
37527;SDS011;23372;52.050;4.810;2023-02-16T17:05:10;65.07;;;38.77;;
37527;SDS011;23372;52.050;4.810;2023-02-16T17:07:36;64.43;;;37.93;;
37527;SDS011;23372;52.050;4.810;2023-02-16T17:10:01;77.17;;;50.63;;